sensor_id;sensor_type;location;lat;lon;timestamp;P1;durP1;ratioP1;P2;durP2;ratioP2
65033;SDS011;51601;51.356;12.458;2022-08-19T00:03:32;26.95;;;18.02;;
65033;SDS011;51601;51.356;12.458;2022-08-19T00:07:47;27.65;;;19.00;;
65033;SDS011;51601;51.356;12.458;2022-08-19T00:12:03;28.33;;;19.73;;
65033;SDS011;51601;51.356;12.458;2022-08-19T00:16:17;27.25;;;18.88;;
65033;SDS011;51601;51.356;12.458;2022-08-19T00:20:37;25.77;;;17.42;;
65033;SDS011;51601;51.356;12.458;2022-08-19T00:24:52;28.93;;;20.37;;
65033;SDS011;51601;51.356;12.458;2022-08-19T00:29:08;32.88;;;21.98;;
65033;SDS011;51601;51.356;12.458;2022-08-19T00:33:23;33.53;;;21.50;;
65033;SDS011;51601;51.356;12.458;2022-08-19T00:37:41;30.93;;;20.20;;
65033;SDS011;51601;51.356;12.458;2022-08-19T00:41:55;33.50;;;20.10;;
65033;SDS011;51601;51.356;12.458;2022-08-19T00:46:10;32.60;;;21.23;;
65033;SDS011;51601;51.356;12.458;2022-08-19T00:50:24;33.83;;;21.83;;
65033;SDS011;51601;51.356;12.458;2022-08-19T00:54:38;34.90;;;21.43;;
65033;SDS011;51601;51.356;12.458;2022-08-19T00:58:53;35.33;;;22.23;;
65033;SDS011;51601;51.356;12.458;2022-08-19T01:03:12;37.20;;;23.17;;
65033;SDS011;51601;51.356;12.458;2022-08-19T01:07:30;35.70;;;23.20;;
65033;SDS011;51601;51.356;12.458;2022-08-19T01:11:49;34.35;;;22.60;;
65033;SDS011;51601;51.356;12.458;2022-08-19T01:16:03;35.92;;;23.52;;
65033;SDS011;51601;51.356;12.458;2022-08-19T01:20:22;34.07;;;22.40;;
65033;SDS011;51601;51.356;12.458;2022-08-19T01:24:38;34.10;;;23.08;;
65033;SDS011;51601;51.356;12.458;2022-08-19T01:29:00;36.10;;;22.88;;
65033;SDS011;51601;51.356;12.458;2022-08-19T01:33:16;33.58;;;21.95;;
65033;SDS011;51601;51.356;12.458;2022-08-19T01:37:41;36.27;;;23.80;;
65033;SDS011;51601;51.356;12.458;2022-08-19T01:41:57;37.45;;;24.02;;
65033;SDS011;51601;51.356;12.458;2022-08-19T01:46:14;39.33;;;24.95;;
65033;SDS011;51601;51.356;12.458;2022-08-19T01:50:34;40.63;;;26.00;;
65033;SDS011;51601;51.356;12.458;2022-08-19T01:54:48;39.17;;;24.83;;
65033;SDS011;51601;51.356;12.458;2022-08-19T01:59:04;39.65;;;24.20;;
65033;SDS011;51601;51.356;12.458;2022-08-19T02:03:22;34.43;;;23.10;;
65033;SDS011;51601;51.356;12.458;2022-08-19T02:07:36;34.67;;;23.75;;
65033;SDS011;51601;51.356;12.458;2022-08-19T02:11:52;42.42;;;26.17;;
65033;SDS011;51601;51.356;12.458;2022-08-19T02:16:07;36.42;;;24.52;;
65033;SDS011;51601;51.356;12.458;2022-08-19T02:20:21;40.70;;;25.50;;
65033;SDS011;51601;51.356;12.458;2022-08-19T02:24:35;38.65;;;25.33;;
65033;SDS011;51601;51.356;12.458;2022-08-19T02:28:50;39.25;;;25.52;;
65033;SDS011;51601;51.356;12.458;2022-08-19T02:33:05;38.37;;;24.97;;
65033;SDS011;51601;51.356;12.458;2022-08-19T02:37:19;37.95;;;24.60;;
65033;SDS011;51601;51.356;12.458;2022-08-19T02:41:50;36.88;;;22.65;;
65033;SDS011;51601;51.356;12.458;2022-08-19T02:46:10;34.93;;;22.30;;
65033;SDS011;51601;51.356;12.458;2022-08-19T02:50:27;33.53;;;20.92;;
65033;SDS011;51601;51.356;12.458;2022-08-19T02:54:41;33.30;;;22.00;;
65033;SDS011;51601;51.356;12.458;2022-08-19T02:58:55;30.35;;;21.35;;
65033;SDS011;51601;51.356;12.458;2022-08-19T03:03:10;29.97;;;20.70;;
65033;SDS011;51601;51.356;12.458;2022-08-19T03:07:25;29.58;;;20.63;;
65033;SDS011;51601;51.356;12.458;2022-08-19T03:11:39;25.75;;;19.35;;
65033;SDS011;51601;51.356;12.458;2022-08-19T03:15:53;25.77;;;18.40;;
65033;SDS011;51601;51.356;12.458;2022-08-19T03:20:07;25.98;;;18.30;;
65033;SDS011;51601;51.356;12.458;2022-08-19T03:24:23;24.05;;;16.90;;
65033;SDS011;51601;51.356;12.458;2022-08-19T03:28:37;24.57;;;17.63;;
65033;SDS011;51601;51.356;12.458;2022-08-19T03:32:51;29.90;;;19.88;;
65033;SDS011;51601;51.356;12.458;2022-08-19T03:37:09;26.52;;;17.92;;
65033;SDS011;51601;51.356;12.458;2022-08-19T03:41:26;26.38;;;18.88;;
65033;SDS011;51601;51.356;12.458;2022-08-19T03:46:02;27.63;;;18.53;;
65033;SDS011;51601;51.356;12.458;2022-08-19T03:50:17;25.52;;;18.70;;
65033;SDS011;51601;51.356;12.458;2022-08-19T03:54:31;24.50;;;17.73;;
65033;SDS011;51601;51.356;12.458;2022-08-19T03:58:48;23.03;;;16.73;;
65033;SDS011;51601;51.356;12.458;2022-08-19T04:03:02;24.55;;;17.35;;
65033;SDS011;51601;51.356;12.458;2022-08-19T04:07:16;22.63;;;15.82;;
65033;SDS011;51601;51.356;12.458;2022-08-19T04:11:33;24.77;;;18.37;;
65033;SDS011;51601;51.356;12.458;2022-08-19T04:15:56;24.25;;;18.25;;
65033;SDS011;51601;51.356;12.458;2022-08-19T04:20:10;28.00;;;19.58;;
65033;SDS011;51601;51.356;12.458;2022-08-19T04:24:23;26.55;;;18.13;;
65033;SDS011;51601;51.356;12.458;2022-08-19T04:28:38;25.20;;;18.30;;
65033;SDS011;51601;51.356;12.458;2022-08-19T04:32:53;28.27;;;19.05;;
65033;SDS011;51601;51.356;12.458;2022-08-19T04:37:07;28.50;;;18.70;;
65033;SDS011;51601;51.356;12.458;2022-08-19T04:41:23;27.67;;;20.63;;
65033;SDS011;51601;51.356;12.458;2022-08-19T04:45:55;32.20;;;20.77;;
65033;SDS011;51601;51.356;12.458;2022-08-19T04:50:13;31.48;;;22.20;;
65033;SDS011;51601;51.356;12.458;2022-08-19T04:54:29;32.93;;;23.30;;
65033;SDS011;51601;51.356;12.458;2022-08-19T04:58:50;30.77;;;22.92;;
65033;SDS011;51601;51.356;12.458;2022-08-19T05:03:04;32.80;;;23.52;;
65033;SDS011;51601;51.356;12.458;2022-08-19T05:07:20;33.85;;;22.98;;
65033;SDS011;51601;51.356;12.458;2022-08-19T05:11:35;33.00;;;22.23;;
65033;SDS011;51601;51.356;12.458;2022-08-19T05:15:53;34.50;;;22.67;;
65033;SDS011;51601;51.356;12.458;2022-08-19T05:20:08;34.25;;;23.65;;
65033;SDS011;51601;51.356;12.458;2022-08-19T05:24:42;35.97;;;25.03;;
65033;SDS011;51601;51.356;12.458;2022-08-19T05:29:17;39.17;;;26.60;;
65033;SDS011;51601;51.356;12.458;2022-08-19T05:33:33;38.90;;;25.45;;
65033;SDS011;51601;51.356;12.458;2022-08-19T05:37:47;40.07;;;27.23;;
65033;SDS011;51601;51.356;12.458;2022-08-19T05:42:08;42.83;;;27.40;;
65033;SDS011;51601;51.356;12.458;2022-08-19T05:46:23;40.65;;;27.20;;
65033;SDS011;51601;51.356;12.458;2022-08-19T05:50:39;41.67;;;27.42;;
65033;SDS011;51601;51.356;12.458;2022-08-19T05:54:54;40.83;;;27.13;;
65033;SDS011;51601;51.356;12.458;2022-08-19T05:59:09;41.40;;;28.50;;
65033;SDS011;51601;51.356;12.458;2022-08-19T06:03:23;43.40;;;27.70;;
65033;SDS011;51601;51.356;12.458;2022-08-19T06:07:38;41.60;;;27.97;;
65033;SDS011;51601;51.356;12.458;2022-08-19T06:11:53;43.47;;;27.92;;
65033;SDS011;51601;51.356;12.458;2022-08-19T06:16:13;42.38;;;28.65;;
65033;SDS011;51601;51.356;12.458;2022-08-19T06:20:31;42.73;;;28.03;;
65033;SDS011;51601;51.356;12.458;2022-08-19T06:25:05;43.17;;;28.85;;
65033;SDS011;51601;51.356;12.458;2022-08-19T06:29:21;43.50;;;29.30;;
65033;SDS011;51601;51.356;12.458;2022-08-19T06:33:38;45.05;;;29.60;;
65033;SDS011;51601;51.356;12.458;2022-08-19T06:37:52;42.07;;;28.20;;
65033;SDS011;51601;51.356;12.458;2022-08-19T06:42:06;43.95;;;29.95;;
65033;SDS011;51601;51.356;12.458;2022-08-19T06:46:23;45.05;;;29.25;;
65033;SDS011;51601;51.356;12.458;2022-08-19T06:50:39;43.07;;;28.07;;
65033;SDS011;51601;51.356;12.458;2022-08-19T06:54:53;43.90;;;29.63;;
65033;SDS011;51601;51.356;12.458;2022-08-19T06:59:11;49.55;;;30.30;;
65033;SDS011;51601;51.356;12.458;2022-08-19T07:03:28;45.73;;;29.27;;
